sensor_id;sensor_type;location;lat;lon;timestamp;temperature;humidity
75022;SHT31;63583;49.976;20.182;2023-12-20T00:02:20;9.09;45.51
75022;SHT31;63583;49.976;20.182;2023-12-20T00:04:46;9.08;45.17
75022;SHT31;63583;49.976;20.182;2023-12-20T00:07:12;8.93;46.15
75022;SHT31;63583;49.976;20.182;2023-12-20T00:09:37;8.87;45.84
75022;SHT31;63583;49.976;20.182;2023-12-20T00:12:04;8.81;45.93
75022;SHT31;63583;49.976;20.182;2023-12-20T00:14:29;8.70;46.15
75022;SHT31;63583;49.976;20.182;2023-12-20T00:16:55;8.61;45.98
75022;SHT31;63583;49.976;20.182;2023-12-20T00:19:21;8.54;46.13
75022;SHT31;63583;49.976;20.182;2023-12-20T00:21:47;8.60;45.49
75022;SHT31;63583;49.976;20.182;2023-12-20T00:24:13;8.42;45.89
75022;SHT31;63583;49.976;20.182;2023-12-20T00:26:39;8.36;46.18
75022;SHT31;63583;49.976;20.182;2023-12-20T00:29:04;8.40;46.03
75022;SHT31;63583;49.976;20.182;2023-12-20T00:31:30;8.37;45.19
75022;SHT31;63583;49.976;20.182;2023-12-20T00:33:56;8.28;45.74
75022;SHT31;63583;49.976;20.182;2023-12-20T00:36:22;8.25;45.85
75022;SHT31;63583;49.976;20.182;2023-12-20T00:38:47;8.23;45.96
75022;SHT31;63583;49.976;20.182;2023-12-20T00:41:14;8.10;46.51
75022;SHT31;63583;49.976;20.182;2023-12-20T00:43:40;7.98;46.88
75022;SHT31;63583;49.976;20.182;2023-12-20T00:46:06;8.19;45.93
75022;SHT31;63583;49.976;20.182;2023-12-20T00:48:31;8.22;45.39
75022;SHT31;63583;49.976;20.182;2023-12-20T00:50:57;8.36;45.29
75022;SHT31;63583;49.976;20.182;2023-12-20T00:53:23;8.39;44.84
75022;SHT31;63583;49.976;20.182;2023-12-20T00:55:49;8.71;43.51
75022;SHT31;63583;49.976;20.182;2023-12-20T00:58:15;8.78;42.86
75022;SHT31;63583;49.976;20.182;2023-12-20T01:00:41;8.88;42.93
75022;SHT31;63583;49.976;20.182;2023-12-20T01:03:08;8.97;43.27
75022;SHT31;63583;49.976;20.182;2023-12-20T01:05:34;8.89;42.89
75022;SHT31;63583;49.976;20.182;2023-12-20T01:08:00;8.91;43.46
75022;SHT31;63583;49.976;20.182;2023-12-20T01:10:26;8.85;43.47
75022;SHT31;63583;49.976;20.182;2023-12-20T01:12:54;9.01;42.61
75022;SHT31;63583;49.976;20.182;2023-12-20T01:15:20;8.88;43.80
75022;SHT31;63583;49.976;20.182;2023-12-20T01:17:45;8.98;42.86
75022;SHT31;63583;49.976;20.182;2023-12-20T01:20:11;8.95;43.10
75022;SHT31;63583;49.976;20.182;2023-12-20T01:22:37;8.87;44.19
75022;SHT31;63583;49.976;20.182;2023-12-20T01:25:03;8.88;43.99
75022;SHT31;63583;49.976;20.182;2023-12-20T01:27:29;8.95;43.30
75022;SHT31;63583;49.976;20.182;2023-12-20T01:29:57;8.87;43.30
75022;SHT31;63583;49.976;20.182;2023-12-20T01:32:22;8.80;43.29
75022;SHT31;63583;49.976;20.182;2023-12-20T01:34:48;8.87;43.59
75022;SHT31;63583;49.976;20.182;2023-12-20T01:37:14;8.80;43.69
75022;SHT31;63583;49.976;20.182;2023-12-20T01:39:40;8.72;44.35
75022;SHT31;63583;49.976;20.182;2023-12-20T01:42:06;8.68;44.46
75022;SHT31;63583;49.976;20.182;2023-12-20T01:44:32;8.70;44.62
75022;SHT31;63583;49.976;20.182;2023-12-20T01:46:57;8.64;44.87
75022;SHT31;63583;49.976;20.182;2023-12-20T01:49:24;8.49;45.33
75022;SHT31;63583;49.976;20.182;2023-12-20T01:51:50;8.43;45.75
75022;SHT31;63583;49.976;20.182;2023-12-20T01:54:17;8.40;45.66
75022;SHT31;63583;49.976;20.182;2023-12-20T01:56:45;8.28;46.13
75022;SHT31;63583;49.976;20.182;2023-12-20T01:59:11;8.16;45.66
75022;SHT31;63583;49.976;20.182;2023-12-20T02:01:37;8.16;46.00
75022;SHT31;63583;49.976;20.182;2023-12-20T02:04:03;8.21;45.93
75022;SHT31;63583;49.976;20.182;2023-12-20T02:06:30;8.21;46.13
75022;SHT31;63583;49.976;20.182;2023-12-20T02:08:59;7.95;46.55
75022;SHT31;63583;49.976;20.182;2023-12-20T02:11:25;7.95;46.75
75022;SHT31;63583;49.976;20.182;2023-12-20T02:13:52;7.96;46.71
75022;SHT31;63583;49.976;20.182;2023-12-20T02:16:18;8.03;45.71
75022;SHT31;63583;49.976;20.182;2023-12-20T02:18:44;8.10;44.88
75022;SHT31;63583;49.976;20.182;2023-12-20T02:21:10;7.96;45.41
75022;SHT31;63583;49.976;20.182;2023-12-20T02:23:36;7.94;45.42
75022;SHT31;63583;49.976;20.182;2023-12-20T02:26:03;8.03;44.83
75022;SHT31;63583;49.976;20.182;2023-12-20T02:28:30;8.06;44.40
75022;SHT31;63583;49.976;20.182;2023-12-20T02:30:56;8.13;44.78
75022;SHT31;63583;49.976;20.182;2023-12-20T02:33:22;8.12;44.30
75022;SHT31;63583;49.976;20.182;2023-12-20T02:35:48;8.15;44.19
75022;SHT31;63583;49.976;20.182;2023-12-20T02:38:14;8.12;44.77
75022;SHT31;63583;49.976;20.182;2023-12-20T02:40:40;8.13;44.13
75022;SHT31;63583;49.976;20.182;2023-12-20T02:43:06;8.21;44.30
75022;SHT31;63583;49.976;20.182;2023-12-20T02:45:31;8.17;44.64
75022;SHT31;63583;49.976;20.182;2023-12-20T02:47:57;8.07;44.28
75022;SHT31;63583;49.976;20.182;2023-12-20T02:50:23;8.10;44.06
75022;SHT31;63583;49.976;20.182;2023-12-20T02:52:49;8.01;45.10
75022;SHT31;63583;49.976;20.182;2023-12-20T02:55:15;7.88;45.09
75022;SHT31;63583;49.976;20.182;2023-12-20T02:57:41;7.89;44.33
75022;SHT31;63583;49.976;20.182;2023-12-20T03:00:09;7.86;44.85
75022;SHT31;63583;49.976;20.182;2023-12-20T03:02:36;7.95;44.67
75022;SHT31;63583;49.976;20.182;2023-12-20T03:05:02;7.85;44.27
75022;SHT31;63583;49.976;20.182;2023-12-20T03:07:28;7.96;44.07
75022;SHT31;63583;49.976;20.182;2023-12-20T03:09:54;7.85;44.55
75022;SHT31;63583;49.976;20.182;2023-12-20T03:12:20;7.86;44.43
75022;SHT31;63583;49.976;20.182;2023-12-20T03:14:46;7.94;44.26
75022;SHT31;63583;49.976;20.182;2023-12-20T03:17:12;7.75;44.76
75022;SHT31;63583;49.976;20.182;2023-12-20T03:19:37;7.73;45.17
75022;SHT31;63583;49.976;20.182;2023-12-20T03:22:03;7.64;44.90
75022;SHT31;63583;49.976;20.182;2023-12-20T03:24:29;7.51;46.09
75022;SHT31;63583;49.976;20.182;2023-12-20T03:26:55;7.44;45.81
75022;SHT31;63583;49.976;20.182;2023-12-20T03:29:21;7.36;45.01
75022;SHT31;63583;49.976;20.182;2023-12-20T03:31:46;7.31;45.86
75022;SHT31;63583;49.976;20.182;2023-12-20T03:34:12;7.29;45.98
75022;SHT31;63583;49.976;20.182;2023-12-20T03:36:38;7.29;45.39
75022;SHT31;63583;49.976;20.182;2023-12-20T03:39:04;7.38;45.00
75022;SHT31;63583;49.976;20.182;2023-12-20T03:41:30;7.44;44.90
75022;SHT31;63583;49.976;20.182;2023-12-20T03:43:56;7.54;44.83
75022;SHT31;63583;49.976;20.182;2023-12-20T03:46:22;7.70;44.40
75022;SHT31;63583;49.976;20.182;2023-12-20T03:48:48;7.79;44.39
75022;SHT31;63583;49.976;20.182;2023-12-20T03:51:14;7.85;44.03
75022;SHT31;63583;49.976;20.182;2023-12-20T03:53:39;7.91;44.06
75022;SHT31;63583;49.976;20.182;2023-12-20T03:56:06;7.99;44.30
75022;SHT31;63583;49.976;20.182;2023-12-20T03:58:32;7.99;44.16
75022;SHT31;63583;49.976;20.182;2023-12-20T04:00:58;8.01;45.01
75022;SHT31;63583;49.976;20.182;2023-12-20T04:03:23;7.98;45.12
75022;SHT31;63583;49.976;20.182;2023-12-20T04:05:49;8.02;45.77
75022;SHT31;63583;49.976;20.182;2023-12-20T04:08:15;8.01;46.21
75022;SHT31;63583;49.976;20.182;2023-12-20T04:10:41;8.03;44.90
75022;SHT31;63583;49.976;20.182;2023-12-20T04:13:07;8.15;45.00
75022;SHT31;63583;49.976;20.182;2023-12-20T04:15:33;8.22;44.54
75022;SHT31;63583;49.976;20.182;2023-12-20T04:17:58;8.25;44.61
75022;SHT31;63583;49.976;20.182;2023-12-20T04:20:24;8.29;44.76
75022;SHT31;63583;49.976;20.182;2023-12-20T04:22:50;8.30;44.68
75022;SHT31;63583;49.976;20.182;2023-12-20T04:25:16;8.46;44.83
75022;SHT31;63583;49.976;20.182;2023-12-20T04:27:42;8.40;44.41
75022;SHT31;63583;49.976;20.182;2023-12-20T04:30:08;8.36;45.36
75022;SHT31;63583;49.976;20.182;2023-12-20T04:32:34;8.40;44.48
75022;SHT31;63583;49.976;20.182;2023-12-20T04:35:00;8.42;44.96
75022;SHT31;63583;49.976;20.182;2023-12-20T04:37:26;8.47;44.65
75022;SHT31;63583;49.976;20.182;2023-12-20T04:39:52;8.51;45.05
75022;SHT31;63583;49.976;20.182;2023-12-20T04:42:18;8.57;44.95
75022;SHT31;63583;49.976;20.182;2023-12-20T04:44:44;8.59;44.88
75022;SHT31;63583;49.976;20.182;2023-12-20T04:47:10;8.51;44.79
75022;SHT31;63583;49.976;20.182;2023-12-20T04:49:36;8.51;44.64
75022;SHT31;63583;49.976;20.182;2023-12-20T04:52:02;8.42;45.49
75022;SHT31;63583;49.976;20.182;2023-12-20T04:54:28;8.44;45.28
75022;SHT31;63583;49.976;20.182;2023-12-20T04:56:53;8.59;45.21
75022;SHT31;63583;49.976;20.182;2023-12-20T04:59:19;8.54;45.40
75022;SHT31;63583;49.976;20.182;2023-12-20T05:01:45;8.50;45.94
75022;SHT31;63583;49.976;20.182;2023-12-20T05:04:11;8.46;46.20
75022;SHT31;63583;49.976;20.182;2023-12-20T05:06:37;8.47;45.96
75022;SHT31;63583;49.976;20.182;2023-12-20T05:09:03;8.49;46.16
75022;SHT31;63583;49.976;20.182;2023-12-20T05:11:28;8.57;45.91
75022;SHT31;63583;49.976;20.182;2023-12-20T05:13:55;8.54;46.18
75022;SHT31;63583;49.976;20.182;2023-12-20T05:16:21;8.47;46.80
75022;SHT31;63583;49.976;20.182;2023-12-20T05:18:48;8.12;47.59
75022;SHT31;63583;49.976;20.182;2023-12-20T05:21:13;8.01;48.07
75022;SHT31;63583;49.976;20.182;2023-12-20T05:23:39;7.94;48.66
75022;SHT31;63583;49.976;20.182;2023-12-20T05:26:05;7.89;49.60
75022;SHT31;63583;49.976;20.182;2023-12-20T05:28:32;7.82;50.10
75022;SHT31;63583;49.976;20.182;2023-12-20T05:30:57;7.48;51.72
75022;SHT31;63583;49.976;20.182;2023-12-20T05:33:24;7.31;53.08
75022;SHT31;63583;49.976;20.182;2023-12-20T05:35:50;7.26;53.92
75022;SHT31;63583;49.976;20.182;2023-12-20T05:38:16;7.22;54.26
75022;SHT31;63583;49.976;20.182;2023-12-20T05:40:42;7.10;55.28
75022;SHT31;63583;49.976;20.182;2023-12-20T05:43:08;7.02;56.48
75022;SHT31;63583;49.976;20.182;2023-12-20T05:45:34;6.99;57.26
75022;SHT31;63583;49.976;20.182;2023-12-20T05:48:00;6.88;58.55
75022;SHT31;63583;49.976;20.182;2023-12-20T05:50:25;6.74;59.53
75022;SHT31;63583;49.976;20.182;2023-12-20T05:52:51;6.52;61.32
75022;SHT31;63583;49.976;20.182;2023-12-20T05:55:17;6.64;61.41
75022;SHT31;63583;49.976;20.182;2023-12-20T05:57:43;6.57;62.39
75022;SHT31;63583;49.976;20.182;2023-12-20T06:00:09;6.50;62.73
75022;SHT31;63583;49.976;20.182;2023-12-20T06:02:35;6.55;62.67
75022;SHT31;63583;49.976;20.182;2023-12-20T06:05:04;6.51;62.78
75022;SHT31;63583;49.976;20.182;2023-12-20T06:07:30;6.38;63.76
75022;SHT31;63583;49.976;20.182;2023-12-20T06:09:56;6.29;64.69
75022;SHT31;63583;49.976;20.182;2023-12-20T06:12:22;6.33;65.05
75022;SHT31;63583;49.976;20.182;2023-12-20T06:14:48;6.30;65.98
75022;SHT31;63583;49.976;20.182;2023-12-20T06:17:14;6.19;66.84
75022;SHT31;63583;49.976;20.182;2023-12-20T06:19:39;6.12;67.83
75022;SHT31;63583;49.976;20.182;2023-12-20T06:22:05;6.01;69.17
75022;SHT31;63583;49.976;20.182;2023-12-20T06:24:31;5.91;70.37
75022;SHT31;63583;49.976;20.182;2023-12-20T06:26:59;5.86;71.22
75022;SHT31;63583;49.976;20.182;2023-12-20T06:29:25;5.79;72.70
75022;SHT31;63583;49.976;20.182;2023-12-20T06:31:51;5.72;73.48
75022;SHT31;63583;49.976;20.182;2023-12-20T06:34:17;5.66;74.35
75022;SHT31;63583;49.976;20.182;2023-12-20T06:36:43;5.69;74.82
75022;SHT31;63583;49.976;20.182;2023-12-20T06:39:09;5.65;76.02
75022;SHT31;63583;49.976;20.182;2023-12-20T06:41:35;5.54;77.62
75022;SHT31;63583;49.976;20.182;2023-12-20T06:44:00;5.45;78.71
75022;SHT31;63583;49.976;20.182;2023-12-20T06:46:26;5.33;79.33
75022;SHT31;63583;49.976;20.182;2023-12-20T06:48:52;5.20;80.26
75022;SHT31;63583;49.976;20.182;2023-12-20T06:51:18;5.19;80.96
75022;SHT31;63583;49.976;20.182;2023-12-20T06:53:45;5.20;81.13
75022;SHT31;63583;49.976;20.182;2023-12-20T06:56:11;5.14;81.62
75022;SHT31;63583;49.976;20.182;2023-12-20T06:58:41;5.20;81.94
75022;SHT31;63583;49.976;20.182;2023-12-20T07:01:12;5.10;83.22
75022;SHT31;63583;49.976;20.182;2023-12-20T07:03:38;5.12;83.38
75022;SHT31;63583;49.976;20.182;2023-12-20T07:06:04;5.01;84.18
75022;SHT31;63583;49.976;20.182;2023-12-20T07:08:29;4.99;84.68
75022;SHT31;63583;49.976;20.182;2023-12-20T07:10:55;5.00;85.06
75022;SHT31;63583;49.976;20.182;2023-12-20T07:13:21;4.90;85.30
75022;SHT31;63583;49.976;20.182;2023-12-20T07:15:48;4.90;85.76
75022;SHT31;63583;49.976;20.182;2023-12-20T07:18:14;4.96;85.86
75022;SHT31;63583;49.976;20.182;2023-12-20T07:20:40;4.83;86.41
75022;SHT31;63583;49.976;20.182;2023-12-20T07:23:06;4.95;86.61
75022;SHT31;63583;49.976;20.182;2023-12-20T07:25:32;4.79;87.45
75022;SHT31;63583;49.976;20.182;2023-12-20T07:27:58;4.83;87.16
75022;SHT31;63583;49.976;20.182;2023-12-20T07:30:24;4.79;87.50
75022;SHT31;63583;49.976;20.182;2023-12-20T07:32:50;4.80;87.59
75022;SHT31;63583;49.976;20.182;2023-12-20T07:35:16;4.79;87.40
75022;SHT31;63583;49.976;20.182;2023-12-20T07:37:42;4.85;87.59
75022;SHT31;63583;49.976;20.182;2023-12-20T07:40:08;4.79;87.77
75022;SHT31;63583;49.976;20.182;2023-12-20T07:42:33;4.76;88.15
75022;SHT31;63583;49.976;20.182;2023-12-20T07:44:59;4.67;88.38
75022;SHT31;63583;49.976;20.182;2023-12-20T07:47:25;4.69;88.18
75022;SHT31;63583;49.976;20.182;2023-12-20T07:49:51;4.71;88.55
75022;SHT31;63583;49.976;20.182;2023-12-20T07:52:18;4.71;88.83
75022;SHT31;63583;49.976;20.182;2023-12-20T07:54:45;4.67;89.08
75022;SHT31;63583;49.976;20.182;2023-12-20T07:57:11;4.73;88.93
75022;SHT31;63583;49.976;20.182;2023-12-20T07:59:37;4.78;88.69
75022;SHT31;63583;49.976;20.182;2023-12-20T08:02:03;4.79;88.68
75022;SHT31;63583;49.976;20.182;2023-12-20T08:04:29;4.75;89.00
75022;SHT31;63583;49.976;20.182;2023-12-20T08:06:55;4.76;89.03
75022;SHT31;63583;49.976;20.182;2023-12-20T08:09:21;4.79;88.76
75022;SHT31;63583;49.976;20.182;2023-12-20T08:11:47;4.75;88.76
75022;SHT31;63583;49.976;20.182;2023-12-20T08:14:13;4.82;88.97
75022;SHT31;63583;49.976;20.182;2023-12-20T08:16:39;4.65;89.61
75022;SHT31;63583;49.976;20.182;2023-12-20T08:19:05;4.76;89.24
75022;SHT31;63583;49.976;20.182;2023-12-20T08:21:31;4.78;89.39
75022;SHT31;63583;49.976;20.182;2023-12-20T08:23:57;4.78;89.07
75022;SHT31;63583;49.976;20.182;2023-12-20T08:26:23;4.78;89.18
75022;SHT31;63583;49.976;20.182;2023-12-20T08:28:52;4.79;89.56
75022;SHT31;63583;49.976;20.182;2023-12-20T08:31:18;4.83;89.02
75022;SHT31;63583;49.976;20.182;2023-12-20T08:33:45;4.78;89.42
75022;SHT31;63583;49.976;20.182;2023-12-20T08:36:12;4.83;88.92
75022;SHT31;63583;49.976;20.182;2023-12-20T08:38:39;4.85;89.00
75022;SHT31;63583;49.976;20.182;2023-12-20T08:41:05;4.83;88.49
75022;SHT31;63583;49.976;20.182;2023-12-20T08:43:34;4.87;88.51
75022;SHT31;63583;49.976;20.182;2023-12-20T08:46:02;4.90;88.80
75022;SHT31;63583;49.976;20.182;2023-12-20T08:48:29;4.95;88.21
75022;SHT31;63583;49.976;20.182;2023-12-20T08:50:54;4.92;88.63
75022;SHT31;63583;49.976;20.182;2023-12-20T08:53:20;4.92;88.85
75022;SHT31;63583;49.976;20.182;2023-12-20T08:55:46;4.79;89.26
75022;SHT31;63583;49.976;20.182;2023-12-20T08:58:14;4.86;88.33
75022;SHT31;63583;49.976;20.182;2023-12-20T09:00:40;4.85;88.72
75022;SHT31;63583;49.976;20.182;2023-12-20T09:03:06;4.87;88.71
75022;SHT31;63583;49.976;20.182;2023-12-20T09:05:31;4.80;89.12
75022;SHT31;63583;49.976;20.182;2023-12-20T09:07:57;4.86;88.88
75022;SHT31;63583;49.976;20.182;2023-12-20T09:10:23;4.89;88.69
75022;SHT31;63583;49.976;20.182;2023-12-20T09:12:53;4.89;88.77
75022;SHT31;63583;49.976;20.182;2023-12-20T09:15:26;4.93;88.60
75022;SHT31;63583;49.976;20.182;2023-12-20T09:17:53;4.85;88.39
75022;SHT31;63583;49.976;20.182;2023-12-20T09:20:19;4.83;88.38
75022;SHT31;63583;49.976;20.182;2023-12-20T09:22:45;4.95;88.30
75022;SHT31;63583;49.976;20.182;2023-12-20T09:25:12;4.86;88.63
75022;SHT31;63583;49.976;20.182;2023-12-20T09:27:39;4.85;89.12
75022;SHT31;63583;49.976;20.182;2023-12-20T09:30:05;4.89;89.30
75022;SHT31;63583;49.976;20.182;2023-12-20T09:32:32;4.85;89.55
75022;SHT31;63583;49.976;20.182;2023-12-20T09:34:57;4.87;89.51
75022;SHT31;63583;49.976;20.182;2023-12-20T09:37:27;4.92;89.38
75022;SHT31;63583;49.976;20.182;2023-12-20T09:39:53;4.90;89.49
75022;SHT31;63583;49.976;20.182;2023-12-20T09:45:11;4.82;89.97
75022;SHT31;63583;49.976;20.182;2023-12-20T09:47:43;4.96;89.85
75022;SHT31;63583;49.976;20.182;2023-12-20T09:50:12;4.82;90.17
75022;SHT31;63583;49.976;20.182;2023-12-20T09:52:40;4.85;90.04
75022;SHT31;63583;49.976;20.182;2023-12-20T09:55:09;4.90;90.15
75022;SHT31;63583;49.976;20.182;2023-12-20T09:57:35;4.67;91.08
75022;SHT31;63583;49.976;20.182;2023-12-20T10:00:01;4.75;90.93
75022;SHT31;63583;49.976;20.182;2023-12-20T10:02:28;4.79;91.06
75022;SHT31;63583;49.976;20.182;2023-12-20T10:04:55;4.73;91.58
75022;SHT31;63583;49.976;20.182;2023-12-20T10:07:21;4.71;91.21
75022;SHT31;63583;49.976;20.182;2023-12-20T10:09:48;4.71;91.31
75022;SHT31;63583;49.976;20.182;2023-12-20T10:12:14;4.75;91.09
75022;SHT31;63583;49.976;20.182;2023-12-20T10:14:40;4.61;91.53
75022;SHT31;63583;49.976;20.182;2023-12-20T10:17:06;4.58;91.85
75022;SHT31;63583;49.976;20.182;2023-12-20T10:19:32;4.58;91.67
75022;SHT31;63583;49.976;20.182;2023-12-20T10:22:04;4.65;91.52
75022;SHT31;63583;49.976;20.182;2023-12-20T10:24:30;4.62;92.04
75022;SHT31;63583;49.976;20.182;2023-12-20T10:27:06;4.71;91.17
75022;SHT31;63583;49.976;20.182;2023-12-20T10:29:35;4.61;91.02
75022;SHT31;63583;49.976;20.182;2023-12-20T10:32:27;4.71;90.73
75022;SHT31;63583;49.976;20.182;2023-12-20T10:34:55;4.59;90.71
75022;SHT31;63583;49.976;20.182;2023-12-20T10:37:22;4.54;90.99
75022;SHT31;63583;49.976;20.182;2023-12-20T10:39:50;4.55;91.32
75022;SHT31;63583;49.976;20.182;2023-12-20T10:42:22;4.54;91.35
75022;SHT31;63583;49.976;20.182;2023-12-20T10:44:51;4.54;91.43
75022;SHT31;63583;49.976;20.182;2023-12-20T10:47:20;4.48;91.80
75022;SHT31;63583;49.976;20.182;2023-12-20T10:49:46;4.52;92.10
75022;SHT31;63583;49.976;20.182;2023-12-20T10:52:13;4.51;92.11
75022;SHT31;63583;49.976;20.182;2023-12-20T10:54:39;4.57;91.75
75022;SHT31;63583;49.976;20.182;2023-12-20T10:57:06;4.58;91.12
75022;SHT31;63583;49.976;20.182;2023-12-20T10:59:37;4.52;90.75
75022;SHT31;63583;49.976;20.182;2023-12-20T11:02:04;4.52;91.22
75022;SHT31;63583;49.976;20.182;2023-12-20T11:04:47;4.48;91.40
75022;SHT31;63583;49.976;20.182;2023-12-20T11:10:25;4.33;91.72
75022;SHT31;63583;49.976;20.182;2023-12-20T11:13:10;4.44;91.32
75022;SHT31;63583;49.976;20.182;2023-12-20T11:15:37;4.51;91.36
75022;SHT31;63583;49.976;20.182;2023-12-20T11:18:04;4.49;91.30
75022;SHT31;63583;49.976;20.182;2023-12-20T11:20:41;4.51;91.20
75022;SHT31;63583;49.976;20.182;2023-12-20T11:23:10;4.49;91.02
75022;SHT31;63583;49.976;20.182;2023-12-20T11:28:12;4.41;91.18
75022;SHT31;63583;49.976;20.182;2023-12-20T11:30:50;4.48;91.44
75022;SHT31;63583;49.976;20.182;2023-12-20T11:33:21;4.61;90.71
75022;SHT31;63583;49.976;20.182;2023-12-20T11:35:47;4.64;90.78
75022;SHT31;63583;49.976;20.182;2023-12-20T11:38:14;4.52;90.98
75022;SHT31;63583;49.976;20.182;2023-12-20T11:40:41;4.45;91.30
75022;SHT31;63583;49.976;20.182;2023-12-20T11:43:08;4.47;91.87
75022;SHT31;63583;49.976;20.182;2023-12-20T11:45:33;4.57;91.75
75022;SHT31;63583;49.976;20.182;2023-12-20T11:48:01;4.65;91.32
75022;SHT31;63583;49.976;20.182;2023-12-20T11:50:28;4.65;90.96
75022;SHT31;63583;49.976;20.182;2023-12-20T11:52:55;4.71;91.13
75022;SHT31;63583;49.976;20.182;2023-12-20T11:55:22;4.58;91.41
75022;SHT31;63583;49.976;20.182;2023-12-20T11:57:52;4.67;90.91
75022;SHT31;63583;49.976;20.182;2023-12-20T12:00:18;4.62;90.93
75022;SHT31;63583;49.976;20.182;2023-12-20T12:02:58;4.59;91.31
75022;SHT31;63583;49.976;20.182;2023-12-20T12:05:24;4.65;91.31
75022;SHT31;63583;49.976;20.182;2023-12-20T12:07:51;4.62;91.44
75022;SHT31;63583;49.976;20.182;2023-12-20T12:10:16;4.62;91.05
75022;SHT31;63583;49.976;20.182;2023-12-20T12:12:42;4.59;92.05
75022;SHT31;63583;49.976;20.182;2023-12-20T12:15:08;4.59;91.74
75022;SHT31;63583;49.976;20.182;2023-12-20T12:17:35;4.68;91.56
75022;SHT31;63583;49.976;20.182;2023-12-20T12:20:04;4.65;91.58
75022;SHT31;63583;49.976;20.182;2023-12-20T12:22:31;4.76;91.12
75022;SHT31;63583;49.976;20.182;2023-12-20T12:25:10;4.69;91.17
75022;SHT31;63583;49.976;20.182;2023-12-20T12:27:39;4.76;91.39
75022;SHT31;63583;49.976;20.182;2023-12-20T12:30:05;4.76;91.10
75022;SHT31;63583;49.976;20.182;2023-12-20T12:32:33;4.69;90.53
75022;SHT31;63583;49.976;20.182;2023-12-20T12:34:59;4.73;91.14
75022;SHT31;63583;49.976;20.182;2023-12-20T12:37:25;4.72;91.25
75022;SHT31;63583;49.976;20.182;2023-12-20T12:39:54;4.76;90.21
75022;SHT31;63583;49.976;20.182;2023-12-20T12:42:20;4.71;90.30
75022;SHT31;63583;49.976;20.182;2023-12-20T12:44:47;4.64;90.83
75022;SHT31;63583;49.976;20.182;2023-12-20T12:47:13;4.61;90.80
75022;SHT31;63583;49.976;20.182;2023-12-20T12:49:40;4.72;90.66
75022;SHT31;63583;49.976;20.182;2023-12-20T12:52:06;4.75;90.54
75022;SHT31;63583;49.976;20.182;2023-12-20T12:54:32;4.78;90.04
75022;SHT31;63583;49.976;20.182;2023-12-20T12:56:58;4.69;90.20
75022;SHT31;63583;49.976;20.182;2023-12-20T12:59:23;4.67;90.26
75022;SHT31;63583;49.976;20.182;2023-12-20T13:01:49;4.76;90.38
75022;SHT31;63583;49.976;20.182;2023-12-20T13:04:15;4.68;90.37
75022;SHT31;63583;49.976;20.182;2023-12-20T13:06:41;4.76;90.11
75022;SHT31;63583;49.976;20.182;2023-12-20T13:09:07;4.73;90.54
75022;SHT31;63583;49.976;20.182;2023-12-20T13:11:35;4.67;90.79
75022;SHT31;63583;49.976;20.182;2023-12-20T13:14:01;4.73;90.56
75022;SHT31;63583;49.976;20.182;2023-12-20T13:16:27;4.71;90.27
75022;SHT31;63583;49.976;20.182;2023-12-20T13:18:53;4.65;90.79
75022;SHT31;63583;49.976;20.182;2023-12-20T13:21:19;4.78;90.37
75022;SHT31;63583;49.976;20.182;2023-12-20T13:23:46;4.73;90.33
75022;SHT31;63583;49.976;20.182;2023-12-20T13:26:12;4.69;90.64
75022;SHT31;63583;49.976;20.182;2023-12-20T13:28:38;4.78;90.71
75022;SHT31;63583;49.976;20.182;2023-12-20T13:31:04;4.65;90.41
75022;SHT31;63583;49.976;20.182;2023-12-20T13:33:29;4.68;89.95
75022;SHT31;63583;49.976;20.182;2023-12-20T13:35:55;4.69;89.50
75022;SHT31;63583;49.976;20.182;2023-12-20T13:38:23;4.68;89.81
75022;SHT31;63583;49.976;20.182;2023-12-20T13:40:49;4.71;89.89
75022;SHT31;63583;49.976;20.182;2023-12-20T13:43:15;4.62;89.38
75022;SHT31;63583;49.976;20.182;2023-12-20T13:45:47;4.69;88.79
75022;SHT31;63583;49.976;20.182;2023-12-20T13:48:13;4.71;88.69
75022;SHT31;63583;49.976;20.182;2023-12-20T13:50:39;4.71;88.74
75022;SHT31;63583;49.976;20.182;2023-12-20T13:53:04;4.71;88.59
75022;SHT31;63583;49.976;20.182;2023-12-20T13:55:30;4.67;87.98
75022;SHT31;63583;49.976;20.182;2023-12-20T13:57:56;4.62;88.23
75022;SHT31;63583;49.976;20.182;2023-12-20T14:00:23;4.64;88.11
75022;SHT31;63583;49.976;20.182;2023-12-20T14:02:49;4.59;87.86
75022;SHT31;63583;49.976;20.182;2023-12-20T14:05:16;4.62;87.37
75022;SHT31;63583;49.976;20.182;2023-12-20T14:07:46;4.64;87.22
75022;SHT31;63583;49.976;20.182;2023-12-20T14:10:15;4.58;87.51
75022;SHT31;63583;49.976;20.182;2023-12-20T14:12:41;4.55;87.83
75022;SHT31;63583;49.976;20.182;2023-12-20T14:15:08;4.55;88.07
75022;SHT31;63583;49.976;20.182;2023-12-20T14:17:41;4.55;88.12
75022;SHT31;63583;49.976;20.182;2023-12-20T14:20:11;4.67;87.97
75022;SHT31;63583;49.976;20.182;2023-12-20T14:22:38;4.49;88.46
75022;SHT31;63583;49.976;20.182;2023-12-20T14:25:05;4.64;87.81
75022;SHT31;63583;49.976;20.182;2023-12-20T14:27:31;4.64;88.15
75022;SHT31;63583;49.976;20.182;2023-12-20T14:29:57;4.62;88.37
75022;SHT31;63583;49.976;20.182;2023-12-20T14:32:24;4.61;88.16
75022;SHT31;63583;49.976;20.182;2023-12-20T14:34:50;4.67;87.57
75022;SHT31;63583;49.976;20.182;2023-12-20T14:37:16;4.64;87.40
75022;SHT31;63583;49.976;20.182;2023-12-20T14:39:43;4.65;87.32
75022;SHT31;63583;49.976;20.182;2023-12-20T14:42:09;4.67;87.22
75022;SHT31;63583;49.976;20.182;2023-12-20T14:44:40;4.62;86.52
75022;SHT31;63583;49.976;20.182;2023-12-20T14:47:09;4.51;86.49
75022;SHT31;63583;49.976;20.182;2023-12-20T14:49:35;4.51;86.43
75022;SHT31;63583;49.976;20.182;2023-12-20T14:52:01;4.47;86.73
75022;SHT31;63583;49.976;20.182;2023-12-20T14:54:27;4.38;87.44
75022;SHT31;63583;49.976;20.182;2023-12-20T14:56:53;4.49;87.06
75022;SHT31;63583;49.976;20.182;2023-12-20T14:59:19;4.41;87.29
75022;SHT31;63583;49.976;20.182;2023-12-20T15:01:45;4.37;87.44
75022;SHT31;63583;49.976;20.182;2023-12-20T15:04:11;4.41;87.09
75022;SHT31;63583;49.976;20.182;2023-12-20T15:06:38;4.30;87.29
75022;SHT31;63583;49.976;20.182;2023-12-20T15:09:04;4.24;87.27
75022;SHT31;63583;49.976;20.182;2023-12-20T15:11:34;4.27;87.61
75022;SHT31;63583;49.976;20.182;2023-12-20T15:14:01;4.37;86.99
75022;SHT31;63583;49.976;20.182;2023-12-20T15:16:28;4.36;87.07
75022;SHT31;63583;49.976;20.182;2023-12-20T15:18:54;4.30;87.28
75022;SHT31;63583;49.976;20.182;2023-12-20T15:21:20;4.30;87.36
75022;SHT31;63583;49.976;20.182;2023-12-20T15:23:56;4.38;86.87
75022;SHT31;63583;49.976;20.182;2023-12-20T15:26:34;4.38;86.88
75022;SHT31;63583;49.976;20.182;2023-12-20T15:29:01;4.51;86.58
75022;SHT31;63583;49.976;20.182;2023-12-20T15:31:32;4.40;86.76
75022;SHT31;63583;49.976;20.182;2023-12-20T15:34:00;4.45;86.52
75022;SHT31;63583;49.976;20.182;2023-12-20T15:36:29;4.41;86.56